Mira Loma, CA (91752)

12:05 PM PST on December 06, 2016 (GMT -0800)
Awesome Sky Country | | Change Station

Elev 692 ft 33.98 °N, 117.53 °W | Updated 29 seconds ago

Overcast
Overcast
65.0 °F
Feels Like 65.0 °F
N
1.0
Wind Variable Wind from NNW

Today
High -- | Low -- °F
--% Chance of Precip.
Yesterday
High -- | Low -- °F
Precip. -- in
Pressure 29.96 in
Visibility 10.0 miles
Clouds Overcast 4200 ft
Dew Point 48 °F
Humidity 54%
Rainfall 0.00 in
Snow Depth Not available.
6:41 AM 4:40 PM
Waxing Crescent, 44% visible
METAR KRAL 061953Z 36003KT 10SM OVC042 16/06 A2998 RMK AO2 SLP143 T01610061
Pressure 29.96 in
Visibility 10.0 miles
Clouds Overcast 4200 ft
Dew Point 48 °F
Humidity 54%
Rainfall 0.00 in
Snow Depth Not available.
6:41 AM 4:40 PM
Waxing Crescent, 44% visible
METAR KRAL 061953Z 36003KT 10SM OVC042 16/06 A2998 RMK AO2 SLP143 T01610061

10-Day Weather Forecast

Almanac

Astronomy

Dec. 06, 2016 Rise Set
Actual Time
Civil Twilight
Nautical Twilight
Astronomical Twilight
Moon
Length of Visible Light
Length of Day
Tomorrow will be .
, % of the Moon is Illuminated

Today's Extremes

State Highs State Lows

Community

WunderPhotos

Upload Photos

1,956,022 photos uploaded!

WunderBlog® & News

Nearby

Air Quality

  Air Quality AQ Index Pollutant
Not available.

Snow Depth

Station Depth Elevation

Earthquake Activity

City Distance Mag. Time & Date
Minimum magnitude displayed is 2.5.

Coastal Water Temperatures

Place Temperature

Stations

Nearby Weather Stations

Station Location Temp. Windchill Dew Point Humidity Wind Precip. Elev Updated Type
                   

Watches & Warnings

There are currently no watches in effect.